sensor_id;sensor_type;location;lat;lon;timestamp;P1;durP1;ratioP1;P2;durP2;ratioP2
63284;SDS011;49409;55.708;37.522;2022-08-19T00:02:03;8.77;;;3.80;;
63284;SDS011;49409;55.708;37.522;2022-08-19T00:04:31;9.38;;;3.72;;
63284;SDS011;49409;55.708;37.522;2022-08-19T00:09:28;7.75;;;3.15;;
63284;SDS011;49409;55.708;37.522;2022-08-19T00:11:54;6.35;;;3.60;;
63284;SDS011;49409;55.708;37.522;2022-08-19T00:14:20;7.57;;;3.60;;
63284;SDS011;49409;55.708;37.522;2022-08-19T00:16:46;7.05;;;3.28;;
63284;SDS011;49409;55.708;37.522;2022-08-19T00:19:13;8.95;;;3.92;;
63284;SDS011;49409;55.708;37.522;2022-08-19T00:21:39;6.07;;;3.97;;
63284;SDS011;49409;55.708;37.522;2022-08-19T00:24:08;9.02;;;3.88;;
63284;SDS011;49409;55.708;37.522;2022-08-19T00:26:35;6.10;;;3.40;;
63284;SDS011;49409;55.708;37.522;2022-08-19T00:29:03;6.57;;;3.33;;
63284;SDS011;49409;55.708;37.522;2022-08-19T00:31:29;6.72;;;3.72;;
63284;SDS011;49409;55.708;37.522;2022-08-19T00:33:56;7.90;;;3.88;;
63284;SDS011;49409;55.708;37.522;2022-08-19T00:36:22;6.75;;;3.67;;
63284;SDS011;49409;55.708;37.522;2022-08-19T00:38:47;6.13;;;3.95;;
63284;SDS011;49409;55.708;37.522;2022-08-19T00:41:13;7.53;;;3.97;;
63284;SDS011;49409;55.708;37.522;2022-08-19T00:43:41;7.40;;;3.95;;
63284;SDS011;49409;55.708;37.522;2022-08-19T00:46:07;8.07;;;3.70;;
63284;SDS011;49409;55.708;37.522;2022-08-19T00:48:33;7.28;;;4.53;;
63284;SDS011;49409;55.708;37.522;2022-08-19T00:50:59;8.63;;;4.28;;
63284;SDS011;49409;55.708;37.522;2022-08-19T00:53:26;9.27;;;4.00;;
63284;SDS011;49409;55.708;37.522;2022-08-19T00:55:58;8.32;;;4.32;;
63284;SDS011;49409;55.708;37.522;2022-08-19T00:58:27;7.07;;;4.00;;
63284;SDS011;49409;55.708;37.522;2022-08-19T01:00:55;7.05;;;4.03;;
63284;SDS011;49409;55.708;37.522;2022-08-19T01:03:21;6.38;;;3.90;;
63284;SDS011;49409;55.708;37.522;2022-08-19T01:05:48;7.65;;;3.67;;
63284;SDS011;49409;55.708;37.522;2022-08-19T01:08:16;8.55;;;4.30;;
63284;SDS011;49409;55.708;37.522;2022-08-19T01:10:44;7.18;;;3.60;;
63284;SDS011;49409;55.708;37.522;2022-08-19T01:13:14;6.95;;;3.95;;
63284;SDS011;49409;55.708;37.522;2022-08-19T01:15:43;8.27;;;3.92;;
63284;SDS011;49409;55.708;37.522;2022-08-19T01:18:14;6.40;;;3.35;;
63284;SDS011;49409;55.708;37.522;2022-08-19T01:20:41;7.03;;;4.07;;
63284;SDS011;49409;55.708;37.522;2022-08-19T01:23:07;7.20;;;4.40;;
63284;SDS011;49409;55.708;37.522;2022-08-19T01:25:41;7.88;;;4.57;;
63284;SDS011;49409;55.708;37.522;2022-08-19T01:28:24;6.80;;;4.20;;
63284;SDS011;49409;55.708;37.522;2022-08-19T01:30:52;6.97;;;4.30;;
63284;SDS011;49409;55.708;37.522;2022-08-19T01:33:19;8.63;;;4.05;;
63284;SDS011;49409;55.708;37.522;2022-08-19T01:35:46;7.55;;;4.32;;
63284;SDS011;49409;55.708;37.522;2022-08-19T01:38:24;10.98;;;3.95;;
63284;SDS011;49409;55.708;37.522;2022-08-19T01:40:51;8.60;;;4.13;;
63284;SDS011;49409;55.708;37.522;2022-08-19T01:43:17;8.05;;;3.63;;
63284;SDS011;49409;55.708;37.522;2022-08-19T01:45:44;7.65;;;4.03;;
63284;SDS011;49409;55.708;37.522;2022-08-19T01:48:10;5.05;;;3.30;;
63284;SDS011;49409;55.708;37.522;2022-08-19T01:50:36;9.73;;;4.05;;
63284;SDS011;49409;55.708;37.522;2022-08-19T01:53:05;8.57;;;4.57;;
63284;SDS011;49409;55.708;37.522;2022-08-19T01:55:35;7.05;;;4.00;;
63284;SDS011;49409;55.708;37.522;2022-08-19T01:58:02;8.98;;;4.10;;
63284;SDS011;49409;55.708;37.522;2022-08-19T02:00:30;8.18;;;3.83;;
63284;SDS011;49409;55.708;37.522;2022-08-19T02:02:57;9.23;;;4.60;;
63284;SDS011;49409;55.708;37.522;2022-08-19T02:05:22;7.75;;;4.10;;
63284;SDS011;49409;55.708;37.522;2022-08-19T02:07:49;8.20;;;3.85;;
63284;SDS011;49409;55.708;37.522;2022-08-19T02:10:17;10.05;;;4.78;;
63284;SDS011;49409;55.708;37.522;2022-08-19T02:12:45;6.82;;;3.90;;
63284;SDS011;49409;55.708;37.522;2022-08-19T02:15:11;7.95;;;4.07;;
63284;SDS011;49409;55.708;37.522;2022-08-19T02:17:37;6.55;;;3.78;;
63284;SDS011;49409;55.708;37.522;2022-08-19T02:20:03;7.85;;;4.88;;
63284;SDS011;49409;55.708;37.522;2022-08-19T02:22:31;7.82;;;4.60;;
63284;SDS011;49409;55.708;37.522;2022-08-19T02:24:57;6.85;;;4.05;;
63284;SDS011;49409;55.708;37.522;2022-08-19T02:27:22;8.75;;;4.40;;
63284;SDS011;49409;55.708;37.522;2022-08-19T02:29:49;8.77;;;4.38;;
63284;SDS011;49409;55.708;37.522;2022-08-19T02:32:15;8.60;;;4.25;;
63284;SDS011;49409;55.708;37.522;2022-08-19T02:34:43;8.55;;;4.05;;
63284;SDS011;49409;55.708;37.522;2022-08-19T02:37:08;9.68;;;4.05;;
63284;SDS011;49409;55.708;37.522;2022-08-19T02:39:54;8.30;;;4.38;;
63284;SDS011;49409;55.708;37.522;2022-08-19T02:42:19;11.25;;;4.47;;
63284;SDS011;49409;55.708;37.522;2022-08-19T02:44:45;8.25;;;4.28;;
63284;SDS011;49409;55.708;37.522;2022-08-19T02:47:10;8.45;;;4.80;;
63284;SDS011;49409;55.708;37.522;2022-08-19T02:49:36;8.50;;;4.60;;
63284;SDS011;49409;55.708;37.522;2022-08-19T02:52:02;7.78;;;4.15;;
63284;SDS011;49409;55.708;37.522;2022-08-19T02:54:28;9.13;;;4.72;;
63284;SDS011;49409;55.708;37.522;2022-08-19T02:56:53;7.25;;;4.38;;
63284;SDS011;49409;55.708;37.522;2022-08-19T02:59:19;10.35;;;4.72;;
63284;SDS011;49409;55.708;37.522;2022-08-19T03:01:45;8.77;;;4.07;;
63284;SDS011;49409;55.708;37.522;2022-08-19T03:04:12;10.00;;;4.40;;
63284;SDS011;49409;55.708;37.522;2022-08-19T03:06:41;8.40;;;4.57;;
63284;SDS011;49409;55.708;37.522;2022-08-19T03:09:09;7.63;;;4.00;;
63284;SDS011;49409;55.708;37.522;2022-08-19T03:11:36;9.32;;;3.95;;
63284;SDS011;49409;55.708;37.522;2022-08-19T03:14:02;8.38;;;4.15;;
63284;SDS011;49409;55.708;37.522;2022-08-19T03:16:31;6.82;;;4.13;;
63284;SDS011;49409;55.708;37.522;2022-08-19T03:18:58;8.57;;;4.30;;
63284;SDS011;49409;55.708;37.522;2022-08-19T03:21:27;9.85;;;4.43;;
63284;SDS011;49409;55.708;37.522;2022-08-19T03:23:57;8.30;;;4.07;;
63284;SDS011;49409;55.708;37.522;2022-08-19T03:26:25;8.57;;;4.05;;
63284;SDS011;49409;55.708;37.522;2022-08-19T03:28:51;10.52;;;4.30;;
63284;SDS011;49409;55.708;37.522;2022-08-19T03:31:19;7.70;;;4.47;;
63284;SDS011;49409;55.708;37.522;2022-08-19T03:33:49;9.05;;;4.00;;
63284;SDS011;49409;55.708;37.522;2022-08-19T03:36:17;10.82;;;4.65;;
63284;SDS011;49409;55.708;37.522;2022-08-19T03:38:49;8.65;;;4.95;;
63284;SDS011;49409;55.708;37.522;2022-08-19T03:41:21;6.53;;;4.10;;
63284;SDS011;49409;55.708;37.522;2022-08-19T03:43:50;7.40;;;4.40;;
63284;SDS011;49409;55.708;37.522;2022-08-19T03:46:18;7.68;;;4.65;;
63284;SDS011;49409;55.708;37.522;2022-08-19T03:48:47;7.82;;;3.70;;
63284;SDS011;49409;55.708;37.522;2022-08-19T03:51:21;6.63;;;3.75;;
63284;SDS011;49409;55.708;37.522;2022-08-19T03:53:51;8.35;;;4.60;;
63284;SDS011;49409;55.708;37.522;2022-08-19T03:56:17;8.40;;;3.70;;
63284;SDS011;49409;55.708;37.522;2022-08-19T03:58:43;8.13;;;4.00;;
63284;SDS011;49409;55.708;37.522;2022-08-19T04:01:13;7.53;;;4.05;;
63284;SDS011;49409;55.708;37.522;2022-08-19T04:03:42;7.35;;;3.90;;
63284;SDS011;49409;55.708;37.522;2022-08-19T04:06:12;8.02;;;4.78;;
63284;SDS011;49409;55.708;37.522;2022-08-19T04:08:41;7.40;;;3.92;;
63284;SDS011;49409;55.708;37.522;2022-08-19T04:11:15;7.55;;;4.10;;
63284;SDS011;49409;55.708;37.522;2022-08-19T04:13:42;9.57;;;4.38;;
63284;SDS011;49409;55.708;37.522;2022-08-19T04:16:10;7.50;;;3.90;;
63284;SDS011;49409;55.708;37.522;2022-08-19T04:18:37;6.85;;;4.45;;
63284;SDS011;49409;55.708;37.522;2022-08-19T04:21:03;8.55;;;4.80;;
63284;SDS011;49409;55.708;37.522;2022-08-19T04:23:30;11.10;;;4.20;;
63284;SDS011;49409;55.708;37.522;2022-08-19T04:25:56;8.00;;;4.60;;
63284;SDS011;49409;55.708;37.522;2022-08-19T04:28:22;7.95;;;4.53;;
63284;SDS011;49409;55.708;37.522;2022-08-19T04:30:49;9.27;;;5.13;;
63284;SDS011;49409;55.708;37.522;2022-08-19T04:33:17;8.15;;;4.68;;
63284;SDS011;49409;55.708;37.522;2022-08-19T04:35:46;7.38;;;4.25;;
63284;SDS011;49409;55.708;37.522;2022-08-19T04:38:14;7.95;;;4.20;;
63284;SDS011;49409;55.708;37.522;2022-08-19T04:40:45;8.75;;;4.53;;
63284;SDS011;49409;55.708;37.522;2022-08-19T04:43:31;8.48;;;4.32;;
63284;SDS011;49409;55.708;37.522;2022-08-19T04:45:57;9.45;;;4.30;;
63284;SDS011;49409;55.708;37.522;2022-08-19T04:48:23;9.15;;;5.03;;
63284;SDS011;49409;55.708;37.522;2022-08-19T04:50:53;10.07;;;5.28;;
63284;SDS011;49409;55.708;37.522;2022-08-19T04:53:23;10.77;;;5.20;;
63284;SDS011;49409;55.708;37.522;2022-08-19T04:55:50;8.85;;;4.85;;
63284;SDS011;49409;55.708;37.522;2022-08-19T04:58:16;9.35;;;5.03;;
63284;SDS011;49409;55.708;37.522;2022-08-19T05:00:42;7.78;;;4.72;;
63284;SDS011;49409;55.708;37.522;2022-08-19T05:03:08;10.75;;;5.10;;
63284;SDS011;49409;55.708;37.522;2022-08-19T05:05:39;9.10;;;4.80;;
63284;SDS011;49409;55.708;37.522;2022-08-19T05:08:06;9.75;;;5.30;;
63284;SDS011;49409;55.708;37.522;2022-08-19T05:10:34;9.18;;;5.07;;
63284;SDS011;49409;55.708;37.522;2022-08-19T05:13:01;11.20;;;5.57;;
63284;SDS011;49409;55.708;37.522;2022-08-19T05:15:27;8.23;;;4.82;;
63284;SDS011;49409;55.708;37.522;2022-08-19T05:17:53;7.80;;;4.32;;
63284;SDS011;49409;55.708;37.522;2022-08-19T05:20:37;7.22;;;4.43;;
63284;SDS011;49409;55.708;37.522;2022-08-19T05:23:29;9.35;;;4.63;;
63284;SDS011;49409;55.708;37.522;2022-08-19T05:25:55;8.63;;;4.35;;
63284;SDS011;49409;55.708;37.522;2022-08-19T05:28:20;10.75;;;5.43;;
63284;SDS011;49409;55.708;37.522;2022-08-19T05:30:46;8.50;;;4.93;;
63284;SDS011;49409;55.708;37.522;2022-08-19T05:33:13;10.65;;;4.72;;
63284;SDS011;49409;55.708;37.522;2022-08-19T05:35:39;11.85;;;4.75;;
63284;SDS011;49409;55.708;37.522;2022-08-19T05:38:06;9.60;;;4.65;;
63284;SDS011;49409;55.708;37.522;2022-08-19T05:40:36;7.80;;;4.68;;
63284;SDS011;49409;55.708;37.522;2022-08-19T05:43:04;9.18;;;5.10;;
63284;SDS011;49409;55.708;37.522;2022-08-19T05:45:30;10.38;;;4.70;;
63284;SDS011;49409;55.708;37.522;2022-08-19T05:47:56;7.07;;;4.60;;
63284;SDS011;49409;55.708;37.522;2022-08-19T05:50:23;9.65;;;4.53;;
63284;SDS011;49409;55.708;37.522;2022-08-19T05:52:51;8.48;;;4.57;;
63284;SDS011;49409;55.708;37.522;2022-08-19T05:55:17;10.88;;;4.70;;
63284;SDS011;49409;55.708;37.522;2022-08-19T05:57:45;9.10;;;5.53;;
63284;SDS011;49409;55.708;37.522;2022-08-19T06:00:11;9.15;;;4.72;;
63284;SDS011;49409;55.708;37.522;2022-08-19T06:02:39;8.90;;;4.82;;
63284;SDS011;49409;55.708;37.522;2022-08-19T06:05:05;9.65;;;4.82;;
63284;SDS011;49409;55.708;37.522;2022-08-19T06:07:32;8.35;;;4.63;;
63284;SDS011;49409;55.708;37.522;2022-08-19T06:09:57;8.10;;;4.32;;
63284;SDS011;49409;55.708;37.522;2022-08-19T06:12:23;9.40;;;4.13;;
63284;SDS011;49409;55.708;37.522;2022-08-19T06:14:55;8.05;;;4.07;;
63284;SDS011;49409;55.708;37.522;2022-08-19T06:17:21;9.55;;;4.47;;
63284;SDS011;49409;55.708;37.522;2022-08-19T06:19:49;9.75;;;4.35;;
63284;SDS011;49409;55.708;37.522;2022-08-19T06:22:15;9.85;;;4.65;;
63284;SDS011;49409;55.708;37.522;2022-08-19T06:24:41;8.68;;;4.40;;
63284;SDS011;49409;55.708;37.522;2022-08-19T06:27:07;8.82;;;4.03;;
63284;SDS011;49409;55.708;37.522;2022-08-19T06:29:33;7.80;;;4.75;;
63284;SDS011;49409;55.708;37.522;2022-08-19T06:32:00;11.65;;;4.78;;
63284;SDS011;49409;55.708;37.522;2022-08-19T06:34:29;7.80;;;4.50;;
63284;SDS011;49409;55.708;37.522;2022-08-19T06:36:58;9.52;;;5.20;;
63284;SDS011;49409;55.708;37.522;2022-08-19T06:39:26;8.90;;;4.35;;
63284;SDS011;49409;55.708;37.522;2022-08-19T06:41:55;7.32;;;4.43;;
63284;SDS011;49409;55.708;37.522;2022-08-19T06:44:24;9.25;;;4.28;;
63284;SDS011;49409;55.708;37.522;2022-08-19T06:46:52;8.00;;;4.53;;
63284;SDS011;49409;55.708;37.522;2022-08-19T06:49:20;7.55;;;4.53;;
63284;SDS011;49409;55.708;37.522;2022-08-19T06:51:47;8.05;;;4.05;;
63284;SDS011;49409;55.708;37.522;2022-08-19T06:54:14;10.20;;;4.63;;
63284;SDS011;49409;55.708;37.522;2022-08-19T06:56:41;8.98;;;4.35;;
63284;SDS011;49409;55.708;37.522;2022-08-19T06:59:11;7.72;;;4.20;;
63284;SDS011;49409;55.708;37.522;2022-08-19T07:01:39;7.95;;;4.50;;
63284;SDS011;49409;55.708;37.522;2022-08-19T07:04:07;8.63;;;4.50;;
63284;SDS011;49409;55.708;37.522;2022-08-19T07:06:34;9.45;;;4.53;;
63284;SDS011;49409;55.708;37.522;2022-08-19T07:09:02;8.90;;;4.25;;
63284;SDS011;49409;55.708;37.522;2022-08-19T07:11:31;8.95;;;4.63;;
63284;SDS011;49409;55.708;37.522;2022-08-19T07:13:57;8.32;;;4.30;;
63284;SDS011;49409;55.708;37.522;2022-08-19T07:16:23;10.88;;;4.30;;
63284;SDS011;49409;55.708;37.522;2022-08-19T07:18:50;9.40;;;4.55;;
63284;SDS011;49409;55.708;37.522;2022-08-19T07:21:21;7.93;;;4.35;;
63284;SDS011;49409;55.708;37.522;2022-08-19T07:23:49;8.98;;;5.00;;
63284;SDS011;49409;55.708;37.522;2022-08-19T07:26:19;8.73;;;4.50;;
63284;SDS011;49409;55.708;37.522;2022-08-19T07:28:47;9.63;;;4.90;;
63284;SDS011;49409;55.708;37.522;2022-08-19T07:31:15;8.25;;;5.07;;
63284;SDS011;49409;55.708;37.522;2022-08-19T07:33:43;8.90;;;4.97;;
63284;SDS011;49409;55.708;37.522;2022-08-19T07:36:11;6.53;;;4.32;;
63284;SDS011;49409;55.708;37.522;2022-08-19T07:38:42;6.95;;;4.47;;
63284;SDS011;49409;55.708;37.522;2022-08-19T07:41:10;6.90;;;4.25;;
63284;SDS011;49409;55.708;37.522;2022-08-19T07:43:39;10.73;;;4.95;;
63284;SDS011;49409;55.708;37.522;2022-08-19T07:46:05;8.73;;;4.32;;
63284;SDS011;49409;55.708;37.522;2022-08-19T07:48:32;7.95;;;4.30;;
63284;SDS011;49409;55.708;37.522;2022-08-19T07:51:01;8.75;;;4.30;;
63284;SDS011;49409;55.708;37.522;2022-08-19T07:55:55;9.98;;;4.45;;
63284;SDS011;49409;55.708;37.522;2022-08-19T07:58:25;7.22;;;4.45;;
63284;SDS011;49409;55.708;37.522;2022-08-19T08:00:50;5.97;;;3.90;;
63284;SDS011;49409;55.708;37.522;2022-08-19T08:03:17;7.47;;;3.97;;
63284;SDS011;49409;55.708;37.522;2022-08-19T08:05:45;9.63;;;4.20;;
63284;SDS011;49409;55.708;37.522;2022-08-19T08:08:29;9.38;;;4.10;;
63284;SDS011;49409;55.708;37.522;2022-08-19T08:11:14;6.90;;;3.58;;
63284;SDS011;49409;55.708;37.522;2022-08-19T08:13:42;6.13;;;3.63;;
63284;SDS011;49409;55.708;37.522;2022-08-19T08:16:08;7.35;;;3.70;;
63284;SDS011;49409;55.708;37.522;2022-08-19T08:18:34;8.63;;;4.38;;
63284;SDS011;49409;55.708;37.522;2022-08-19T08:21:06;9.15;;;4.30;;
63284;SDS011;49409;55.708;37.522;2022-08-19T08:23:32;6.80;;;4.22;;
63284;SDS011;49409;55.708;37.522;2022-08-19T08:26:01;8.00;;;4.38;;
63284;SDS011;49409;55.708;37.522;2022-08-19T08:28:27;9.13;;;4.75;;
63284;SDS011;49409;55.708;37.522;2022-08-19T08:30:54;8.25;;;4.40;;
63284;SDS011;49409;55.708;37.522;2022-08-19T08:33:21;8.82;;;4.25;;
63284;SDS011;49409;55.708;37.522;2022-08-19T08:36:14;8.45;;;4.63;;
63284;SDS011;49409;55.708;37.522;2022-08-19T08:38:41;5.57;;;3.50;;
63284;SDS011;49409;55.708;37.522;2022-08-19T08:43:53;6.35;;;4.03;;
63284;SDS011;49409;55.708;37.522;2022-08-19T08:50:02;9.15;;;4.30;;
63284;SDS011;49409;55.708;37.522;2022-08-19T08:52:15;6.20;;;3.78;;
63284;SDS011;49409;55.708;37.522;2022-08-19T08:54:47;9.13;;;4.10;;
63284;SDS011;49409;55.708;37.522;2022-08-19T08:57:17;5.97;;;4.35;;
63284;SDS011;49409;55.708;37.522;2022-08-19T08:59:48;7.22;;;3.65;;
63284;SDS011;49409;55.708;37.522;2022-08-19T09:02:17;8.55;;;3.75;;
63284;SDS011;49409;55.708;37.522;2022-08-19T09:04:43;7.50;;;3.22;;
63284;SDS011;49409;55.708;37.522;2022-08-19T09:09:56;7.55;;;3.67;;
63284;SDS011;49409;55.708;37.522;2022-08-19T09:12:52;9.23;;;3.55;;
63284;SDS011;49409;55.708;37.522;2022-08-19T09:15:33;7.18;;;3.70;;
63284;SDS011;49409;55.708;37.522;2022-08-19T09:18:04;5.63;;;3.42;;
63284;SDS011;49409;55.708;37.522;2022-08-19T09:20:31;7.07;;;3.90;;
63284;SDS011;49409;55.708;37.522;2022-08-19T09:22:57;5.15;;;3.35;;
63284;SDS011;49409;55.708;37.522;2022-08-19T09:25:24;6.03;;;3.63;;
63284;SDS011;49409;55.708;37.522;2022-08-19T09:27:50;8.07;;;3.97;;
63284;SDS011;49409;55.708;37.522;2022-08-19T09:30:25;8.25;;;3.90;;
63284;SDS011;49409;55.708;37.522;2022-08-19T09:32:53;8.68;;;4.10;;
63284;SDS011;49409;55.708;37.522;2022-08-19T09:35:20;6.75;;;3.92;;
63284;SDS011;49409;55.708;37.522;2022-08-19T09:37:47;9.30;;;4.30;;
63284;SDS011;49409;55.708;37.522;2022-08-19T09:40:18;10.85;;;4.40;;
63284;SDS011;49409;55.708;37.522;2022-08-19T09:42:45;7.93;;;4.15;;
63284;SDS011;49409;55.708;37.522;2022-08-19T09:45:12;6.75;;;3.97;;
63284;SDS011;49409;55.708;37.522;2022-08-19T09:47:40;7.15;;;3.80;;
63284;SDS011;49409;55.708;37.522;2022-08-19T09:50:07;6.47;;;4.25;;
63284;SDS011;49409;55.708;37.522;2022-08-19T09:52:34;7.32;;;3.72;;
63284;SDS011;49409;55.708;37.522;2022-08-19T09:55:02;8.63;;;4.13;;
63284;SDS011;49409;55.708;37.522;2022-08-19T09:57:29;5.60;;;3.85;;
63284;SDS011;49409;55.708;37.522;2022-08-19T09:59:54;6.47;;;3.60;;
63284;SDS011;49409;55.708;37.522;2022-08-19T10:02:20;6.75;;;3.33;;
63284;SDS011;49409;55.708;37.522;2022-08-19T10:04:45;6.18;;;3.38;;
63284;SDS011;49409;55.708;37.522;2022-08-19T10:07:29;7.75;;;3.00;;
63284;SDS011;49409;55.708;37.522;2022-08-19T10:09:55;5.50;;;2.60;;
63284;SDS011;49409;55.708;37.522;2022-08-19T10:12:21;6.30;;;2.97;;
63284;SDS011;49409;55.708;37.522;2022-08-19T10:14:48;7.70;;;3.20;;
63284;SDS011;49409;55.708;37.522;2022-08-19T10:17:16;8.05;;;3.25;;
63284;SDS011;49409;55.708;37.522;2022-08-19T10:19:42;7.40;;;3.50;;
63284;SDS011;49409;55.708;37.522;2022-08-19T10:22:08;10.98;;;3.60;;
63284;SDS011;49409;55.708;37.522;2022-08-19T10:24:38;4.13;;;2.58;;
63284;SDS011;49409;55.708;37.522;2022-08-19T10:27:04;4.40;;;2.55;;
63284;SDS011;49409;55.708;37.522;2022-08-19T10:29:31;6.97;;;2.70;;
63284;SDS011;49409;55.708;37.522;2022-08-19T10:32:00;4.57;;;2.55;;
63284;SDS011;49409;55.708;37.522;2022-08-19T10:34:27;6.32;;;2.80;;
63284;SDS011;49409;55.708;37.522;2022-08-19T10:36:53;7.18;;;3.00;;
63284;SDS011;49409;55.708;37.522;2022-08-19T10:39:19;5.38;;;2.50;;
63284;SDS011;49409;55.708;37.522;2022-08-19T10:41:45;5.68;;;2.50;;
63284;SDS011;49409;55.708;37.522;2022-08-19T10:44:11;7.68;;;3.30;;
63284;SDS011;49409;55.708;37.522;2022-08-19T10:46:39;5.65;;;2.75;;
63284;SDS011;49409;55.708;37.522;2022-08-19T10:49:07;6.30;;;2.92;;
63284;SDS011;49409;55.708;37.522;2022-08-19T10:51:34;5.20;;;2.95;;
63284;SDS011;49409;55.708;37.522;2022-08-19T10:54:18;6.93;;;2.78;;
63284;SDS011;49409;55.708;37.522;2022-08-19T10:56:45;6.20;;;2.80;;
63284;SDS011;49409;55.708;37.522;2022-08-19T10:59:21;7.93;;;2.63;;
63284;SDS011;49409;55.708;37.522;2022-08-19T11:01:49;4.82;;;2.53;;
63284;SDS011;49409;55.708;37.522;2022-08-19T11:04:16;8.02;;;2.85;;
63284;SDS011;49409;55.708;37.522;2022-08-19T11:06:43;5.15;;;2.58;;
63284;SDS011;49409;55.708;37.522;2022-08-19T11:09:12;7.55;;;2.85;;
63284;SDS011;49409;55.708;37.522;2022-08-19T11:11:40;6.00;;;2.50;;
63284;SDS011;49409;55.708;37.522;2022-08-19T11:14:10;4.75;;;2.38;;
63284;SDS011;49409;55.708;37.522;2022-08-19T11:16:37;5.82;;;2.83;;
63284;SDS011;49409;55.708;37.522;2022-08-19T11:19:04;5.20;;;2.50;;
63284;SDS011;49409;55.708;37.522;2022-08-19T11:21:34;5.80;;;2.60;;
63284;SDS011;49409;55.708;37.522;2022-08-19T11:24:08;5.15;;;2.47;;
63284;SDS011;49409;55.708;37.522;2022-08-19T11:26:36;5.68;;;2.28;;
63284;SDS011;49409;55.708;37.522;2022-08-19T11:29:03;5.30;;;2.75;;
63284;SDS011;49409;55.708;37.522;2022-08-19T11:31:32;5.75;;;2.97;;
63284;SDS011;49409;55.708;37.522;2022-08-19T11:34:02;5.20;;;2.63;;
63284;SDS011;49409;55.708;37.522;2022-08-19T11:36:29;6.30;;;2.83;;
63284;SDS011;49409;55.708;37.522;2022-08-19T11:38:57;6.35;;;2.80;;
63284;SDS011;49409;55.708;37.522;2022-08-19T11:41:23;4.80;;;2.50;;
63284;SDS011;49409;55.708;37.522;2022-08-19T11:43:50;4.50;;;2.65;;
63284;SDS011;49409;55.708;37.522;2022-08-19T11:46:19;5.05;;;2.80;;
63284;SDS011;49409;55.708;37.522;2022-08-19T11:48:44;5.38;;;2.40;;
63284;SDS011;49409;55.708;37.522;2022-08-19T11:51:14;5.68;;;3.25;;
63284;SDS011;49409;55.708;37.522;2022-08-19T11:53:43;4.55;;;2.42;;
63284;SDS011;49409;55.708;37.522;2022-08-19T11:56:09;6.78;;;2.63;;
63284;SDS011;49409;55.708;37.522;2022-08-19T11:58:35;8.18;;;3.15;;
63284;SDS011;49409;55.708;37.522;2022-08-19T12:01:04;5.47;;;2.78;;
63284;SDS011;49409;55.708;37.522;2022-08-19T12:03:32;5.35;;;3.20;;
63284;SDS011;49409;55.708;37.522;2022-08-19T12:05:58;7.90;;;2.72;;
63284;SDS011;49409;55.708;37.522;2022-08-19T12:08:28;7.97;;;3.00;;
63284;SDS011;49409;55.708;37.522;2022-08-19T12:10:54;8.95;;;3.15;;
63284;SDS011;49409;55.708;37.522;2022-08-19T12:13:19;5.88;;;2.88;;
63284;SDS011;49409;55.708;37.522;2022-08-19T12:15:45;4.85;;;2.67;;
63284;SDS011;49409;55.708;37.522;2022-08-19T12:18:12;8.27;;;3.33;;
63284;SDS011;49409;55.708;37.522;2022-08-19T12:20:39;5.65;;;2.90;;
63284;SDS011;49409;55.708;37.522;2022-08-19T12:23:07;7.00;;;2.85;;
63284;SDS011;49409;55.708;37.522;2022-08-19T12:25:34;6.57;;;3.60;;
63284;SDS011;49409;55.708;37.522;2022-08-19T12:28:00;7.75;;;3.80;;
63284;SDS011;49409;55.708;37.522;2022-08-19T12:30:26;7.45;;;3.25;;
63284;SDS011;49409;55.708;37.522;2022-08-19T12:32:52;7.25;;;3.10;;
63284;SDS011;49409;55.708;37.522;2022-08-19T12:35:18;4.68;;;2.90;;
63284;SDS011;49409;55.708;37.522;2022-08-19T12:37:45;7.30;;;3.30;;
63284;SDS011;49409;55.708;37.522;2022-08-19T12:40:12;6.82;;;3.55;;
63284;SDS011;49409;55.708;37.522;2022-08-19T12:42:39;6.80;;;3.50;;
63284;SDS011;49409;55.708;37.522;2022-08-19T12:45:10;7.22;;;3.38;;
63284;SDS011;49409;55.708;37.522;2022-08-19T12:47:37;7.70;;;3.35;;
63284;SDS011;49409;55.708;37.522;2022-08-19T12:50:04;5.18;;;3.20;;
63284;SDS011;49409;55.708;37.522;2022-08-19T12:52:33;7.05;;;3.53;;
63284;SDS011;49409;55.708;37.522;2022-08-19T12:55:01;8.82;;;3.65;;
63284;SDS011;49409;55.708;37.522;2022-08-19T12:57:29;6.03;;;3.13;;
63284;SDS011;49409;55.708;37.522;2022-08-19T12:59:58;4.65;;;3.13;;
63284;SDS011;49409;55.708;37.522;2022-08-19T13:02:24;5.13;;;2.97;;
63284;SDS011;49409;55.708;37.522;2022-08-19T13:04:51;9.13;;;3.97;;
63284;SDS011;49409;55.708;37.522;2022-08-19T13:07:16;7.53;;;3.70;;
63284;SDS011;49409;55.708;37.522;2022-08-19T13:09:42;5.88;;;3.40;;
63284;SDS011;49409;55.708;37.522;2022-08-19T13:12:08;7.43;;;3.33;;
63284;SDS011;49409;55.708;37.522;2022-08-19T13:14:37;7.93;;;3.30;;
63284;SDS011;49409;55.708;37.522;2022-08-19T13:17:05;4.57;;;3.08;;
63284;SDS011;49409;55.708;37.522;2022-08-19T13:19:31;6.40;;;3.50;;
63284;SDS011;49409;55.708;37.522;2022-08-19T13:21:56;7.85;;;3.80;;
63284;SDS011;49409;55.708;37.522;2022-08-19T13:24:23;9.57;;;4.60;;
63284;SDS011;49409;55.708;37.522;2022-08-19T13:26:48;7.55;;;4.85;;
63284;SDS011;49409;55.708;37.522;2022-08-19T13:29:13;7.57;;;4.70;;
63284;SDS011;49409;55.708;37.522;2022-08-19T13:31:58;8.23;;;5.00;;
63284;SDS011;49409;55.708;37.522;2022-08-19T13:34:42;10.05;;;5.93;;
63284;SDS011;49409;55.708;37.522;2022-08-19T13:37:08;8.35;;;5.20;;
63284;SDS011;49409;55.708;37.522;2022-08-19T13:39:34;7.32;;;4.25;;
63284;SDS011;49409;55.708;37.522;2022-08-19T13:42:00;10.55;;;4.75;;
63284;SDS011;49409;55.708;37.522;2022-08-19T13:44:29;8.20;;;4.80;;
63284;SDS011;49409;55.708;37.522;2022-08-19T13:46:55;7.55;;;3.80;;
63284;SDS011;49409;55.708;37.522;2022-08-19T13:49:35;6.90;;;3.78;;
63284;SDS011;49409;55.708;37.522;2022-08-19T13:52:01;6.32;;;3.60;;
63284;SDS011;49409;55.708;37.522;2022-08-19T13:54:28;5.70;;;3.67;;
63284;SDS011;49409;55.708;37.522;2022-08-19T13:56:53;9.40;;;3.47;;
63284;SDS011;49409;55.708;37.522;2022-08-19T13:59:19;7.72;;;3.13;;
63284;SDS011;49409;55.708;37.522;2022-08-19T14:01:45;7.30;;;3.92;;
63284;SDS011;49409;55.708;37.522;2022-08-19T14:04:10;7.80;;;3.65;;
63284;SDS011;49409;55.708;37.522;2022-08-19T14:06:36;6.63;;;3.35;;
63284;SDS011;49409;55.708;37.522;2022-08-19T14:09:01;6.32;;;3.47;;
63284;SDS011;49409;55.708;37.522;2022-08-19T14:11:27;6.72;;;3.83;;
63284;SDS011;49409;55.708;37.522;2022-08-19T14:13:54;8.10;;;5.03;;
63284;SDS011;49409;55.708;37.522;2022-08-19T14:16:19;10.57;;;7.00;;
63284;SDS011;49409;55.708;37.522;2022-08-19T14:18:46;10.77;;;8.82;;
63284;SDS011;49409;55.708;37.522;2022-08-19T14:21:16;13.43;;;9.75;;
63284;SDS011;49409;55.708;37.522;2022-08-19T14:23:45;12.15;;;9.20;;
63284;SDS011;49409;55.708;37.522;2022-08-19T14:26:12;11.98;;;9.70;;
63284;SDS011;49409;55.708;37.522;2022-08-19T14:28:40;10.68;;;8.88;;
63284;SDS011;49409;55.708;37.522;2022-08-19T14:31:07;11.68;;;8.15;;
63284;SDS011;49409;55.708;37.522;2022-08-19T14:33:44;13.75;;;9.02;;
63284;SDS011;49409;55.708;37.522;2022-08-19T14:36:11;11.98;;;10.05;;
63284;SDS011;49409;55.708;37.522;2022-08-19T14:38:37;12.10;;;9.80;;
63284;SDS011;49409;55.708;37.522;2022-08-19T14:41:08;13.27;;;10.65;;
63284;SDS011;49409;55.708;37.522;2022-08-19T14:43:43;13.20;;;10.30;;
63284;SDS011;49409;55.708;37.522;2022-08-19T14:46:16;13.32;;;11.93;;
63284;SDS011;49409;55.708;37.522;2022-08-19T14:48:45;15.85;;;14.27;;
63284;SDS011;49409;55.708;37.522;2022-08-19T14:51:12;16.83;;;15.07;;
63284;SDS011;49409;55.708;37.522;2022-08-19T14:53:39;16.05;;;14.35;;